Time;durP1;ratioP1;P1;durP2;ratioP2;P2;SDS_P1;SDS_P2;PMS_P1;PMS_P2;Temp;Humidity;BMP_temperature;BMP_pressure;BME280_temperature;BME280_humidity;BME280_pressure;Samples;Min_cycle;Max_cycle;Signal;HPM_P1;HPM_P2
2021/11/17 02:25:50;;;;;;;17.15;13.25;;;;;;;10.55;49.51;101011.78;1805575;77;21039;-63
2021/11/17 02:28:25;;;;;;;;;;;;;;;10.56;49.50;101006.80;1811899;77;21523;-62
2021/11/17 02:31:14;;;;;;;15.70;13.32;;;;;;;10.56;49.46;101011.28;1833484;76;20184;-61
2021/11/17 02:34:01;;;;;;;16.55;13.65;;;;;;;10.53;49.49;101007.09;1807498;77;21087;-62
2021/11/17 02:36:42;;;;;;;17.65;13.13;;;;;;;10.54;49.45;101003.94;1798526;78;21940;-62
2021/11/17 02:39:46;;;;;;;16.07;13.32;;;;;;;10.55;49.42;101010.45;1789490;79;21492;-63
2021/11/17 02:42:27;;;;;;;16.55;13.45;;;;;;;10.55;49.38;101010.45;1801832;77;21526;-62
2021/11/17 02:45:17;;;;;;;16.12;14.00;;;;;;;10.55;49.36;101003.81;1789758;78;21108;-63
2021/11/17 02:48:31;;;;;;;15.88;13.03;;;;;;;10.55;49.33;100997.66;1792531;78;21101;-62
2021/11/17 02:51:31;;;;;;;17.17;13.68;;;;;;;10.56;49.30;101001.98;1677389;84;21593;-61
2021/11/17 02:54:34;;;;;;;14.93;12.40;;;;;;;10.55;49.27;101002.48;1683210;83;21064;-62
2021/11/17 02:57:08;;;;;;;15.98;13.25;;;;;;;10.55;49.23;101007.80;1791799;79;21591;-61
2021/11/17 03:00:01;;;;;;;15.10;12.37;;;;;;;10.55;49.21;101004.30;1778553;79;20996;-62
2021/11/17 03:02:39;;;;;;;15.90;13.35;;;;;;;10.55;49.19;101012.27;1798508;79;21053;-61
2021/11/17 03:05:11;;;;;;;15.13;12.68;;;;;;;10.54;49.13;101015.89;1786763;78;23211;-62
2021/11/17 03:07:51;;;;;;;15.70;13.15;;;;;;;10.55;49.11;101012.27;1794714;79;20990;-63
2021/11/17 03:10:42;;;;;;;15.43;13.08;;;;;;;10.56;49.07;101004.64;1777979;77;21072;-63
2021/11/17 03:13:39;;;;;;;15.32;12.85;;;;;;;10.55;49.04;101002.48;1801647;78;21454;-62
2021/11/17 03:16:37;;;;;;;15.13;12.50;;;;;;;10.54;49.01;101003.44;1800132;79;21009;-62
2021/11/17 03:19:17;;;;;;;15.45;13.28;;;;;;;10.54;49.00;101002.61;1784492;78;21085;-62
2021/11/17 03:21:58;;;;;;;16.67;13.00;;;;;;;10.53;48.98;100996.96;1774745;77;21025;-62
2021/11/17 03:25:05;;;;;;;16.10;13.80;;;;;;;10.53;48.94;100999.62;1802410;78;21504;-62
2021/11/17 03:27:40;;;;;;;13.72;12.15;;;;;;;10.52;48.92;100998.75;1788254;78;21599;-62
2021/11/17 03:30:20;;;;;;;15.72;13.10;;;;;;;10.52;48.91;100997.92;1807531;78;21029;-62
2021/11/17 03:32:59;;;;;;;14.60;12.37;;;;;;;10.51;48.89;100994.93;1802255;78;21848;-62
2021/11/17 03:35:50;;;;;;;15.90;13.05;;;;;;;10.51;48.86;100994.44;1806872;77;21029;-62
2021/11/17 03:38:43;;;;;;;15.68;12.95;;;;;;;10.51;48.84;100994.93;1798304;77;21013;-62
2021/11/17 03:41:32;;;;;;;16.03;13.60;;;;;;;10.50;48.81;100994.56;1791411;77;21048;-62
2021/11/17 03:44:37;;;;;;;14.53;12.37;;;;;;;10.49;48.79;100997.72;1803381;78;21541;-61
2021/11/17 03:47:30;;;;;;;15.43;12.05;;;;;;;10.48;48.78;100994.70;1803487;77;21054;-62
2021/11/17 03:50:30;;;;;;;13.15;11.73;;;;;;;10.47;48.77;100994.83;1809393;77;20998;-61
2021/11/17 03:53:24;;;;;;;15.60;13.08;;;;;;;10.46;48.76;100991.34;1797316;78;21149;-62
2021/11/17 03:56:29;;;;;;;14.90;11.50;;;;;;;10.45;48.75;100989.67;1749886;78;21073;-62
2021/11/17 03:59:27;;;;;;;14.55;12.23;;;;;;;10.43;48.74;100987.14;1794659;77;21042;-63
2021/11/17 04:02:22;;;;;;;14.15;11.63;;;;;;;10.43;48.73;100983.66;1794939;77;21289;-62
2021/11/17 04:05:31;;;;;;;15.23;12.68;;;;;;;10.41;48.72;100982.46;1781954;78;20986;-62
2021/11/17 04:08:20;;;;;;;14.30;10.25;;;;;;;10.40;48.71;100982.09;1773369;77;21084;-62
2021/11/17 04:10:52;;;;;;;16.60;11.93;;;;;;;10.39;48.72;100978.23;1797027;77;20997;-63
2021/11/17 04:13:50;;;;;;;15.15;12.23;;;;;;;10.39;48.69;100980.89;1798722;77;20985;-63
2021/11/17 04:16:31;;;;;;;14.18;12.25;;;;;;;10.38;48.68;100984.55;1805417;77;21715;-62
2021/11/17 04:19:09;;;;;;;14.75;11.45;;;;;;;10.37;48.67;100981.06;1811412;77;21635;-62
2021/11/17 04:22:02;;;;;;;13.40;11.63;;;;;;;10.36;48.63;100979.36;1811506;78;21483;-63
2021/11/17 04:24:59;;;;;;;16.07;12.30;;;;;;;10.35;48.64;100979.03;1791579;79;21018;-61
2021/11/17 04:27:47;;;;;;;14.38;11.63;;;;;;;10.35;48.62;100979.03;1778407;80;21555;-61
2021/11/17 04:30:50;;;;;;;13.98;11.28;;;;;;;10.35;48.62;100980.36;1777722;78;21130;-61
2021/11/17 04:33:37;;;;;;;14.25;11.75;;;;;;;10.33;48.61;100976.97;1802741;79;21070;-62
2021/11/17 04:36:32;;;;;;;14.58;11.70;;;;;;;10.33;48.58;100973.48;1797954;79;21105;-65
2021/11/17 04:39:16;;;;;;;13.48;11.80;;;;;;;10.31;48.58;100968.30;1795418;79;21051;-61
2021/11/17 04:42:03;;;;;;;13.50;11.60;;;;;;;10.31;48.58;100966.97;1798219;79;21066;-62
2021/11/17 04:45:19;;;;;;;13.32;11.35;;;;;;;10.29;48.57;100960.92;1797640;78;21137;-62
2021/11/17 04:47:54;;;;;;;14.10;11.35;;;;;;;10.29;48.54;100964.91;1800713;78;21278;-62
2021/11/17 04:50:38;;;;;;;12.20;10.98;;;;;;;10.25;48.56;100955.53;1758627;79;21022;-62
2021/11/17 04:53:30;;;;;;;15.15;11.55;;;;;;;10.27;48.54;100962.87;1792943;79;21581;-62
2021/11/17 04:56:15;;;;;;;12.88;10.53;;;;;;;10.27;48.52;100964.70;1809526;78;21106;-62
2021/11/17 04:58:47;;;;;;;14.13;11.68;;;;;;;10.26;48.51;100961.22;1799229;79;21202;-62
2021/11/17 05:01:21;;;;;;;13.32;11.57;;;;;;;10.24;48.51;100962.67;1806395;78;21105;-62
2021/11/17 05:04:21;;;;;;;13.38;10.88;;;;;;;10.24;48.52;100956.03;1751438;78;21567;-63
2021/11/17 05:07:16;;;;;;;13.95;10.90;;;;;;;10.24;48.49;100957.36;1770954;79;21088;-62
2021/11/17 05:10:09;;;;;;;14.40;11.63;;;;;;;10.24;48.46;100961.84;1777883;78;21492;-62
2021/11/17 05:12:44;;;;;;;13.55;10.70;;;;;;;10.23;48.46;100961.47;1784128;78;21062;-62
2021/11/17 05:15:48;;;;;;;12.65;10.80;;;;;;;10.22;48.43;100959.31;1774610;78;21035;-61
2021/11/17 05:18:35;;;;;;;;;;;;;;;10.21;48.42;100954.96;1794108;79;21110;-62
2021/11/17 05:21:53;;;;;;;14.85;12.00;;;;;;;10.20;48.40;100949.81;1782220;78;20190;-61
2021/11/17 05:24:37;;;;;;;14.35;11.35;;;;;;;10.16;48.44;100954.55;1739491;80;21108;-61
2021/11/17 05:27:23;;;;;;;13.68;11.53;;;;;;;10.14;48.45;100948.54;1770726;78;22266;-61
2021/11/17 05:30:14;;;;;;;14.25;11.35;;;;;;;10.14;48.45;100945.02;1781698;80;21561;-62
2021/11/17 05:32:51;;;;;;;12.43;10.20;;;;;;;10.13;48.43;100949.50;1765854;78;21033;-62
2021/11/17 05:35:54;;;;;;;13.83;11.75;;;;;;;10.14;48.43;100951.66;1771372;78;21053;-62
2021/11/17 05:38:35;;;;;;;14.33;10.63;;;;;;;10.14;48.40;100955.17;1727069;81;21613;-62
2021/11/17 05:41:09;;;;;;;14.65;11.20;;;;;;;10.14;48.37;100956.97;1721239;83;21119;-63
2021/11/17 05:44:04;;;;;;;13.22;11.30;;;;;;;10.14;48.38;100950.33;1739936;80;21017;-62
2021/11/17 05:47:02;;;;;;;14.68;11.20;;;;;;;10.15;48.32;100952.03;1774799;80;21046;-62
2021/11/17 05:49:45;;;;;;;12.13;10.68;;;;;;;10.15;48.32;100945.39;1763494;80;21529;-62
2021/11/17 05:52:29;;;;;;;14.63;10.95;;;;;;;10.14;48.32;100949.87;1774082;80;26494;-61
2021/11/17 05:55:32;;;;;;;13.60;10.65;;;;;;;10.14;48.32;100949.00;1780831;80;21196;-63
2021/11/17 05:58:20;;;;;;;13.20;10.63;;;;;;;10.14;48.30;100945.02;1761140;80;21048;-61
2021/11/17 06:01:16;;;;;;;14.13;11.18;;;;;;;10.14;48.28;100945.02;1766849;80;21033;-62
2021/11/17 06:03:58;;;;;;;11.68;9.83;;;;;;;10.13;48.30;100942.86;1775580;80;21040;-63
2021/11/17 06:06:25;;;;;;;15.23;11.47;;;;;;;10.13;48.28;100942.86;1761318;80;21002;-62
2021/11/17 06:08:50;;;;;;;14.95;11.30;;;;;;;10.13;48.30;100936.72;1769221;79;22294;-62
2021/11/17 06:11:19;;;;;;;13.70;10.88;;;;;;;10.14;48.25;100937.92;1762131;80;26545;-62
2021/11/17 06:13:45;;;;;;;12.07;10.45;;;;;;;10.15;48.24;100932.11;1768497;80;20966;-62
2021/11/17 06:16:11;;;;;;;13.30;10.95;;;;;;;10.16;48.19;100930.66;1773013;79;21513;-63
2021/11/17 06:18:38;;;;;;;12.98;10.98;;;;;;;10.17;48.17;100930.16;1778234;80;21084;-62
2021/11/17 06:21:07;;;;;;;12.93;11.15;;;;;;;10.19;48.14;100925.55;1732986;80;21118;-62
2021/11/17 06:23:49;;;;;;;13.05;10.40;;;;;;;10.21;48.11;100935.55;1773866;80;21481;-63
2021/11/17 06:26:19;;;;;;;12.00;10.80;;;;;;;10.24;48.08;100931.30;1757745;80;21025;-62
2021/11/17 06:28:52;;;;;;;14.35;11.20;;;;;;;10.24;48.05;100929.47;1777352;80;21057;-66
2021/11/17 06:31:19;;;;;;;13.58;10.08;;;;;;;10.26;48.02;100933.80;1777859;80;21048;-62
2021/11/17 06:33:45;;;;;;;12.30;10.53;;;;;;;10.27;48.00;100938.14;1774826;80;21067;-63
2021/11/17 06:36:11;;;;;;;13.13;11.12;;;;;;;10.27;47.98;100933.66;1769416;80;21076;-62
2021/11/17 06:38:38;;;;;;;13.98;11.18;;;;;;;10.29;47.95;100935.69;1764152;80;21021;-62
2021/11/17 06:41:05;;;;;;;12.90;10.95;;;;;;;10.30;47.92;100938.74;1772309;80;21065;-63
2021/11/17 06:43:31;;;;;;;14.40;11.12;;;;;;;10.33;47.91;100945.59;1765842;80;21076;-61
2021/11/17 06:45:58;;;;;;;15.63;11.80;;;;;;;10.35;47.88;100947.62;1780408;79;21123;-61
2021/11/17 06:48:26;;;;;;;13.72;11.55;;;;;;;10.37;47.82;100943.00;1776109;80;21577;-62
2021/11/17 06:50:53;;;;;;;14.40;11.05;;;;;;;10.38;47.80;100937.56;1773069;80;21053;-61
2021/11/17 06:53:21;;;;;;;13.83;11.08;;;;;;;10.40;47.75;100935.61;1767344;79;21517;-62
2021/11/17 06:55:47;;;;;;;14.30;11.63;;;;;;;10.42;47.71;100938.96;1760508;79;21088;-61
2021/11/17 06:58:14;;;;;;;15.50;11.18;;;;;;;10.45;47.69;100923.72;1773748;80;21089;-61
2021/11/17 07:00:43;;;;;;;15.25;11.25;;;;;;;10.46;47.66;100928.07;1780877;80;21075;-61
2021/11/17 07:03:10;;;;;;;13.30;11.25;;;;;;;10.48;47.62;100931.43;1765288;79;21041;-60
2021/11/17 07:05:36;;;;;;;14.87;11.18;;;;;;;10.51;47.58;100928.51;1767854;80;21081;-60
2021/11/17 07:08:04;;;;;;;13.35;10.80;;;;;;;10.52;47.56;100933.66;1776919;80;21095;-60
2021/11/17 07:10:32;;;;;;;14.07;10.80;;;;;;;10.54;47.53;100937.02;1778395;80;21983;-61
2021/11/17 07:12:59;;;;;;;15.00;11.60;;;;;;;10.57;47.51;100939.91;1778682;80;21573;-60
2021/11/17 07:15:27;;;;;;;14.95;11.35;;;;;;;10.58;47.51;100939.73;1771903;80;21022;-61
2021/11/17 07:17:54;;;;;;;15.93;12.33;;;;;;;10.61;47.46;100943.46;1780029;80;21037;-61
2021/11/17 07:20:21;;;;;;;13.68;11.43;;;;;;;10.63;47.44;100940.67;1777253;80;21124;-62
2021/11/17 07:22:47;;;;;;;13.00;10.68;;;;;;;10.65;47.39;100940.04;1760076;80;21146;-62
2021/11/17 07:25:16;;;;;;;15.08;10.95;;;;;;;10.67;47.38;100936.75;1770416;80;21033;-65
2021/11/17 07:27:43;;;;;;;13.30;11.48;;;;;;;10.69;47.34;100935.30;1768443;80;21072;-62
2021/11/17 07:30:12;;;;;;;12.88;10.95;;;;;;;10.71;47.33;100930.17;1780784;80;21962;-62
2021/11/17 07:32:39;;;;;;;13.40;11.45;;;;;;;10.73;47.31;100930.05;1779929;80;21157;-62
2021/11/17 07:35:07;;;;;;;13.32;10.85;;;;;;;10.74;47.26;100941.87;1764836;80;21093;-64
2021/11/17 07:37:33;;;;;;;14.10;11.28;;;;;;;10.76;47.25;100939.08;1778414;80;21021;-62
2021/11/17 07:40:00;;;;;;;13.58;11.33;;;;;;;10.79;47.22;100944.09;1761573;80;21046;-62
2021/11/17 07:42:26;;;;;;;13.08;9.98;;;;;;;10.80;47.16;100939.14;1770800;80;21082;-64
2021/11/17 07:44:52;;;;;;;12.45;10.68;;;;;;;10.82;47.17;100938.51;1762874;80;22382;-63
2021/11/17 07:47:19;;;;;;;12.82;10.98;;;;;;;10.84;47.12;100943.20;1751465;80;21129;-63
2021/11/17 07:49:46;;;;;;;14.13;11.60;;;;;;;10.86;47.12;100940.41;1777802;80;21072;-66
2021/11/17 07:52:12;;;;;;;15.30;11.00;;;;;;;10.89;47.09;100942.77;1765939;79;21553;-63
2021/11/17 07:54:39;;;;;;;14.23;10.53;;;;;;;10.90;47.06;100938.64;1770331;79;21505;-62
2021/11/17 07:57:07;;;;;;;13.43;10.35;;;;;;;10.93;47.05;100945.02;1764735;79;21582;-63
2021/11/17 07:59:35;;;;;;;12.53;10.13;;;;;;;10.97;47.01;100946.88;1801026;77;21087;-64
2021/11/17 08:02:06;;;;;;;12.95;11.55;;;;;;;10.99;46.99;100935.61;1799803;77;21058;-63
2021/11/17 08:04:35;;;;;;;13.60;10.25;;;;;;;11.04;46.97;100932.55;1794103;78;21528;-65
2021/11/17 08:07:05;;;;;;;12.58;10.18;;;;;;;11.08;46.97;100935.27;1805745;78;21035;-63
2021/11/17 08:09:31;;;;;;;15.43;11.33;;;;;;;11.12;46.93;100939.31;1789760;78;21115;-63
2021/11/17 08:11:58;;;;;;;12.28;9.78;;;;;;;11.06;46.88;100915.45;1795413;79;21114;-62
2021/11/17 08:14:24;;;;;;;13.55;10.65;;;;;;;11.21;46.87;100933.97;1786636;79;21102;-62
2021/11/17 08:16:51;;;;;;;12.75;10.23;;;;;;;11.26;46.83;100933.56;1791636;79;21060;-65
2021/11/17 08:19:18;;;;;;;12.82;10.43;;;;;;;11.32;46.79;100929.46;1800607;78;21077;-62
2021/11/17 08:21:44;;;;;;;12.33;10.10;;;;;;;11.37;46.79;100934.70;1775257;78;21552;-62
2021/11/17 08:24:11;;;;;;;12.18;10.50;;;;;;;11.44;46.78;100935.48;1786554;78;21533;-64
2021/11/17 08:26:38;;;;;;;12.10;9.83;;;;;;;11.48;46.79;100935.03;1789135;79;21023;-64
2021/11/17 08:29:06;;;;;;;11.50;9.35;;;;;;;11.55;46.77;100924.63;1778097;78;21062;-63
2021/11/17 08:31:33;;;;;;;13.48;10.05;;;;;;;11.62;46.80;100929.73;1763076;80;21010;-65
2021/11/17 08:33:59;;;;;;;12.80;9.85;;;;;;;11.69;46.77;100927.34;1794049;79;21154;-63
2021/11/17 08:36:25;;;;;;;13.03;10.32;;;;;;;11.77;46.75;100932.77;1807067;79;21081;-65
2021/11/17 08:38:53;;;;;;;11.38;9.75;;;;;;;11.84;46.70;100935.19;1807238;78;21099;-63
2021/11/17 08:41:21;;;;;;;12.90;9.93;;;;;;;11.94;46.64;100931.18;1810760;79;21088;-65
2021/11/17 08:43:47;;;;;;;11.03;9.80;;;;;;;12.00;46.63;100923.42;1794106;79;21022;-64
2021/11/17 08:46:13;;;;;;;11.60;9.88;;;;;;;12.09;46.57;100924.84;1809666;78;21041;-65
2021/11/17 08:48:40;;;;;;;10.45;9.08;;;;;;;12.16;46.54;100919.27;1799580;79;21857;-63
2021/11/17 08:51:11;;;;;;;12.63;9.75;;;;;;;12.26;46.41;100927.20;1795913;77;21010;-63
2021/11/17 08:53:39;;;;;;;10.28;9.18;;;;;;;12.37;46.28;100922.49;1807322;79;21025;-65
2021/11/17 08:56:06;;;;;;;11.70;9.45;;;;;;;12.47;46.16;100924.25;1800568;79;21049;-66
2021/11/17 08:58:33;;;;;;;11.05;9.25;;;;;;;12.57;46.09;100919.67;1809771;79;21048;-63
2021/11/17 09:01:00;;;;;;;11.97;10.23;;;;;;;12.68;46.02;100919.95;1806677;77;21104;-65
2021/11/17 09:03:26;;;;;;;11.53;9.53;;;;;;;12.77;45.90;100913.20;1791596;77;21068;-64
2021/11/17 09:05:57;;;;;;;10.38;9.18;;;;;;;12.87;45.84;100906.45;1810518;78;21001;-65
2021/11/17 09:08:24;;;;;;;11.20;8.75;;;;;;;12.97;45.70;100901.02;1804619;79;20970;-63
2021/11/17 09:10:53;;;;;;;10.32;9.08;;;;;;;13.08;45.59;100903.45;1810320;79;21043;-64
2021/11/17 09:13:21;;;;;;;10.58;9.00;;;;;;;13.18;45.50;100891.34;1810393;78;21648;-65
2021/11/17 09:15:53;;;;;;;9.88;8.70;;;;;;;13.28;45.36;100888.05;1807232;78;21548;-66
2021/11/17 09:18:22;;;;;;;10.03;8.55;;;;;;;13.40;45.24;100881.15;1801531;77;21088;-67
2021/11/17 09:20:49;;;;;;;11.05;9.00;;;;;;;13.49;45.11;100881.03;1793289;77;21525;-65
2021/11/17 09:23:16;;;;;;;10.30;8.00;;;;;;;13.59;45.04;100875.57;1808926;78;21040;-64
2021/11/17 09:25:43;;;;;;;10.55;8.65;;;;;;;13.70;44.94;100877.95;1793375;77;21197;-65
2021/11/17 09:28:10;;;;;;;11.45;8.55;;;;;;;13.80;44.86;100872.48;1782089;79;20997;-67
2021/11/17 09:30:39;;;;;;;11.35;8.50;;;;;;;13.91;44.77;100872.20;1739417;79;20998;-68
2021/11/17 09:33:10;;;;;;;9.45;8.45;;;;;;;14.02;44.71;100867.03;1811977;77;20994;-70
2021/11/17 09:35:40;;;;;;;9.58;8.40;;;;;;;14.13;44.64;100861.89;1809171;77;21006;-66
2021/11/17 09:38:06;;;;;;;8.68;7.50;;;;;;;14.25;44.57;100865.08;1808795;79;21838;-66
2021/11/17 09:40:39;;;;;;;9.30;7.15;;;;;;;14.38;44.50;100858.75;1809643;79;21001;-68
2021/11/17 09:43:08;;;;;;;10.53;8.20;;;;;;;14.50;44.42;100853.91;1809978;78;21025;-71
2021/11/17 09:45:35;;;;;;;9.05;7.85;;;;;;;14.63;44.32;100853.45;1785611;78;20990;-69
2021/11/17 09:48:01;;;;;;;8.60;7.67;;;;;;;14.74;44.27;100847.27;1809475;78;21094;-67
2021/11/17 09:50:36;;;;;;;8.18;7.03;;;;;;;14.87;44.16;100845.42;1802705;77;21128;-67
2021/11/17 09:53:18;;;;;;;7.92;7.10;;;;;;;15.00;44.06;100840.87;1809137;79;21104;-66
2021/11/17 09:55:50;;;;;;;11.10;7.58;;;;;;;15.11;43.97;100834.34;1796508;78;21045;-67
2021/11/17 09:58:34;;;;;;;8.20;7.12;;;;;;;15.24;43.89;100837.80;1791106;79;21740;-66
2021/11/17 10:01:27;;;;;;;10.03;7.72;;;;;;;15.34;43.81;100835.77;1799150;78;21072;-65
2021/11/17 10:04:12;;;;;;;9.37;7.97;;;;;;;15.45;43.72;100838.08;1797492;77;21128;-66
2021/11/17 10:07:08;;;;;;;8.98;7.65;;;;;;;15.56;43.66;100834.17;1800470;78;21734;-65
2021/11/17 10:15:01;;;;;;;8.65;7.12;;;;;;;15.87;43.42;100838.23;1801834;78;21554;-67
2021/11/17 10:17:47;;;;;;;7.62;6.80;;;;;;;15.99;43.35;100829.80;1799839;79;22067;-67
2021/11/17 10:20:31;;;;;;;8.38;6.70;;;;;;;16.08;43.27;100820.19;1763010;79;21463;-66
2021/11/17 10:23:21;;;;;;;7.92;6.83;;;;;;;16.20;43.19;100821.11;1795409;78;21355;-66
2021/11/17 10:25:58;;;;;;;8.58;6.45;;;;;;;16.31;43.11;100817.50;1801586;77;21073;-66
2021/11/17 10:28:35;;;;;;;8.00;6.72;;;;;;;16.45;43.01;100815.05;1780385;78;21048;-65
2021/11/17 10:31:16;;;;;;;7.35;6.15;;;;;;;16.54;42.94;100805.94;1801549;78;21893;-67
2021/11/17 10:34:08;;;;;;;6.90;6.20;;;;;;;16.64;42.86;100811.87;1809119;78;21055;-66
2021/11/17 10:37:00;;;;;;;7.92;6.45;;;;;;;16.77;42.78;100801.04;1800118;78;21619;-66
2021/11/17 10:39:45;;;;;;;7.22;6.25;;;;;;;16.89;42.69;100806.30;1800635;78;21018;-69
2021/11/17 10:42:29;;;;;;;6.28;5.67;;;;;;;17.00;42.62;100804.51;1804859;78;21034;-66
2021/11/17 10:45:14;;;;;;;7.17;5.83;;;;;;;17.11;42.55;100795.14;1801647;77;21131;-67
2021/11/17 10:47:46;;;;;;;6.20;4.90;;;;;;;17.24;42.49;100795.84;1804812;78;21040;-66
2021/11/17 10:50:18;;;;;;;7.27;6.27;;;;;;;17.35;42.42;100787.33;1783909;78;21065;-65
2021/11/17 10:53:08;;;;;;;8.13;5.78;;;;;;;17.45;42.33;100778.97;1803667;78;21163;-68
2021/11/17 10:55:47;;;;;;;6.65;5.50;;;;;;;17.55;42.27;100786.22;1810248;77;21032;-66
2021/11/17 10:58:18;;;;;;;6.97;6.08;;;;;;;17.68;42.20;100784.20;1806607;77;21120;-67
2021/11/17 11:00:52;;;;;;;6.55;5.55;;;;;;;17.78;42.13;100773.97;1808311;78;21026;-67
2021/11/17 11:03:20;;;;;;;6.12;5.30;;;;;;;17.90;42.08;100774.85;1799667;77;21385;-67
2021/11/17 11:06:11;;;;;;;6.70;5.95;;;;;;;17.99;41.97;100765.64;1802170;78;21056;-65
2021/11/17 11:08:43;;;;;;;7.12;5.75;;;;;;;18.08;41.91;100769.88;1813341;78;21015;-66
2021/11/17 11:11:10;;;;;;;6.37;4.87;;;;;;;18.18;41.85;100769.03;1803936;78;21139;-67
2021/11/17 11:13:53;;;;;;;6.00;5.12;;;;;;;18.26;41.77;100762.69;1807772;78;21099;-66
2021/11/17 11:16:27;;;;;;;5.55;5.05;;;;;;;18.31;41.67;100748.64;1806154;78;21528;-68
2021/11/17 11:19:14;;;;;;;5.85;5.22;;;;;;;18.34;41.57;100747.75;1786698;78;21143;-65
2021/11/17 11:21:47;;;;;;;5.47;4.92;;;;;;;18.35;41.50;100752.12;1785801;78;21072;-65
2021/11/17 11:24:39;;;;;;;5.65;5.03;;;;;;;18.37;41.44;100746.52;1798690;77;21034;-68
2021/11/17 11:27:22;;;;;;;6.10;5.50;;;;;;;18.36;41.41;100730.90;1806360;78;20981;-67
2021/11/17 11:30:20;;;;;;;6.03;5.20;;;;;;;18.36;41.39;100736.80;1806885;77;21081;-65
2021/11/17 11:32:45;;;;;;;6.35;5.08;;;;;;;18.36;41.37;100736.80;1803895;78;21013;-67
2021/11/17 11:36:49;;;;;;;4.92;4.30;;;;;;;18.39;41.28;100733.73;1863373;76;22692;-69
2021/11/17 11:39:21;;;;;;;6.15;5.22;;;;;;;18.36;41.23;100738.14;1815921;77;20934;-67
2021/11/17 11:42:11;;;;;;;7.00;5.33;;;;;;;18.38;41.16;100722.64;1819903;77;21111;-65
2021/11/17 11:44:51;;;;;;;6.58;4.78;;;;;;;18.39;41.10;100722.97;1817261;77;21443;-67
2021/11/17 11:47:26;;;;;;;5.53;4.90;;;;;;;18.40;41.02;100723.27;1809542;77;21068;-67
2021/11/17 11:50:01;;;;;;;5.85;4.95;;;;;;;18.42;40.97;100726.59;1799853;77;21049;-66
2021/11/17 11:52:34;;;;;;;5.65;4.67;;;;;;;18.44;40.92;100713.78;1814433;77;20894;-68
2021/11/17 11:55:06;;;;;;;;;;;;;;;18.48;40.87;100713.70;1819866;77;22261;-66
2021/11/17 11:57:46;;;;;;;4.97;4.47;;;;;;;18.54;40.82;100709.40;1821491;77;21492;-66
2021/11/17 12:00:24;;;;;;;5.30;4.80;;;;;;;18.54;40.84;100703.49;1820837;77;21002;-67
2021/11/17 12:03:06;;;;;;;5.50;5.00;;;;;;;18.60;40.82;100699.19;1810230;77;21075;-67
2021/11/17 12:05:44;;;;;;;5.67;5.00;;;;;;;18.64;40.79;100702.65;1825498;77;21001;-67
2021/11/17 12:08:25;;;;;;;5.65;4.75;;;;;;;18.67;40.76;100696.03;1812603;77;21118;-66
2021/11/17 12:11:06;;;;;;;5.30;4.80;;;;;;;18.69;40.73;100699.35;1817334;77;21017;-65
2021/11/17 12:13:41;;;;;;;5.95;5.03;;;;;;;18.70;40.68;100694.30;1814306;77;21044;-67
2021/11/17 12:16:20;;;;;;;5.17;4.67;;;;;;;18.71;40.64;100691.91;1811782;77;21061;-68
2021/11/17 12:18:57;;;;;;;4.58;4.12;;;;;;;18.75;40.61;100696.38;1807664;77;21092;-64
2021/11/17 12:21:44;;;;;;;5.65;4.80;;;;;;;18.66;40.59;100675.02;1820693;77;21043;-64
2021/11/17 12:24:25;;;;;;;5.97;5.08;;;;;;;18.77;40.57;100687.59;1816278;77;20990;-65
2021/11/17 12:27:13;;;;;;;6.40;4.55;;;;;;;18.77;40.52;100684.91;1824495;77;21037;-67
2021/11/17 12:29:48;;;;;;;4.78;4.28;;;;;;;18.73;40.48;100684.98;1819573;77;21057;-66
2021/11/17 12:32:31;;;;;;;4.90;4.50;;;;;;;18.67;40.50;100682.05;1821712;77;21032;-67
2021/11/17 12:35:06;;;;;;;6.33;4.80;;;;;;;18.63;40.50;100683.48;1799568;77;21124;-67
2021/11/17 12:37:53;;;;;;;4.97;4.58;;;;;;;18.54;40.52;100685.18;1825368;77;21446;-68
2021/11/17 12:40:39;;;;;;;5.00;4.37;;;;;;;18.46;40.55;100691.02;1820503;77;21318;-66
2021/11/17 12:43:12;;;;;;;4.95;4.45;;;;;;;18.36;40.62;100689.73;1824031;77;21063;-66
2021/11/17 12:45:51;;;;;;;4.90;4.35;;;;;;;18.26;40.70;100689.55;1823553;78;21595;-64
2021/11/17 12:48:31;;;;;;;4.75;4.33;;;;;;;18.19;40.79;100681.11;1816017;77;21152;-67
2021/11/17 12:51:03;;;;;;;5.17;4.60;;;;;;;18.10;40.86;100679.09;1822492;77;21013;-65
2021/11/17 12:53:41;;;;;;;4.67;4.28;;;;;;;18.03;40.95;100674.16;1811898;77;21059;-66
2021/11/17 12:56:23;;;;;;;4.90;4.40;;;;;;;17.96;40.99;100681.34;1804413;78;21048;-68
2021/11/17 12:59:01;;;;;;;5.78;4.30;;;;;;;17.90;41.04;100679.42;1811749;77;21539;-67
2021/11/17 13:01:36;;;;;;;5.80;4.70;;;;;;;17.81;41.11;100668.79;1817465;77;21153;-66
2021/11/17 13:04:14;;;;;;;5.45;4.78;;;;;;;17.74;41.15;100667.88;1808927;77;21104;-66
2021/11/17 13:06:49;;;;;;;5.05;4.55;;;;;;;17.67;41.18;100667.84;1801296;78;21098;-67
2021/11/17 13:09:35;;;;;;;5.97;5.08;;;;;;;17.61;41.18;100676.64;1809243;77;21029;-66
2021/11/17 13:12:08;;;;;;;5.15;4.28;;;;;;;17.53;41.21;100670.05;1776998;78;21002;-68
2021/11/17 13:14:45;;;;;;;5.08;4.50;;;;;;;17.44;41.18;100668.02;1811626;77;21735;-66
2021/11/17 13:17:25;;;;;;;4.95;4.40;;;;;;;17.37;41.12;100669.80;1812978;78;21465;-65
2021/11/17 13:19:55;;;;;;;5.72;5.20;;;;;;;17.30;41.06;100675.08;1817124;77;21044;-66
2021/11/17 13:22:33;;;;;;;5.12;4.62;;;;;;;17.22;41.05;100663.11;1805316;77;21123;-65
2021/11/17 13:25:27;;;;;;;6.05;5.00;;;;;;;17.14;41.09;100665.09;1804834;77;21092;-66
2021/11/17 13:28:06;;;;;;;5.30;4.80;;;;;;;17.06;41.11;100662.83;1804519;77;21079;-67
2021/11/17 13:30:44;;;;;;;5.20;4.70;;;;;;;16.98;41.21;100664.77;1819014;77;21084;-67
2021/11/17 13:33:31;;;;;;;6.62;4.95;;;;;;;16.90;41.25;100665.22;1817793;77;21077;-67
2021/11/17 13:36:14;;;;;;;6.75;5.08;;;;;;;16.81;41.27;100662.80;1820016;78;21097;-65
2021/11/17 13:38:55;;;;;;;5.90;5.22;;;;;;;16.73;41.37;100657.50;1813963;77;21596;-67
2021/11/17 13:41:22;;;;;;;5.65;4.75;;;;;;;16.65;41.42;100659.77;1825755;77;23253;-65
2021/11/17 13:43:49;;;;;;;5.67;4.75;;;;;;;16.54;41.42;100651.70;1804122;77;21021;-68
2021/11/17 13:46:18;;;;;;;4.95;4.45;;;;;;;16.49;41.47;100664.30;1801920;77;21006;-67
2021/11/17 13:48:44;;;;;;;5.97;5.37;;;;;;;16.43;41.50;100664.22;1801164;77;21028;-67
2021/11/17 13:51:13;;;;;;;5.78;5.25;;;;;;;16.34;41.55;100655.45;1811718;77;21016;-66
2021/11/17 13:53:40;;;;;;;5.20;4.70;;;;;;;16.27;41.59;100658.02;1802524;77;21108;-68
2021/11/17 13:56:14;;;;;;;6.30;5.47;;;;;;;16.20;41.64;100654.39;1816030;77;21057;-68
2021/11/17 13:58:41;;;;;;;6.55;5.20;;;;;;;16.13;41.70;100657.50;1814169;77;21513;-67
2021/11/17 14:01:08;;;;;;;6.15;4.97;;;;;;;16.05;41.79;100658.41;1813295;77;20996;-66
2021/11/17 14:03:35;;;;;;;6.03;4.87;;;;;;;15.99;41.85;100659.62;1817150;77;20997;-64
2021/11/17 14:06:08;;;;;;;5.60;4.95;;;;;;;15.91;41.93;100661.86;1819171;77;20991;-66
2021/11/17 14:08:35;;;;;;;6.25;5.40;;;;;;;15.84;41.94;100664.92;1804097;77;21620;-65
2021/11/17 14:11:01;;;;;;;6.42;4.97;;;;;;;15.76;42.02;100668.53;1816639;77;21470;-66
2021/11/17 14:13:28;;;;;;;7.12;4.85;;;;;;;15.67;42.05;100657.52;1813175;77;21080;-67
2021/11/17 14:15:55;;;;;;;6.30;5.28;;;;;;;15.59;42.06;100657.06;1816308;77;21481;-65
2021/11/17 14:18:23;;;;;;;7.25;5.65;;;;;;;15.52;42.10;100652.91;1797804;77;21495;-66
2021/11/17 14:20:49;;;;;;;6.10;5.40;;;;;;;15.44;42.13;100646.28;1799198;78;21014;-66
2021/11/17 14:23:16;;;;;;;6.15;5.37;;;;;;;15.38;42.24;100649.68;1813467;77;21021;-70
2021/11/17 14:25:44;;;;;;;5.95;5.35;;;;;;;15.31;42.29;100644.70;1819568;77;21029;-66
2021/11/17 14:28:18;;;;;;;7.22;5.47;;;;;;;15.24;42.36;100636.55;1819860;77;21547;-69
2021/11/17 14:30:56;;;;;;;6.53;5.78;;;;;;;15.18;42.40;100635.89;1790642;78;21310;-67
2021/11/17 14:33:26;;;;;;;6.45;5.47;;;;;;;15.11;42.45;100635.78;1815726;77;21038;-67
2021/11/17 14:35:53;;;;;;;7.78;5.92;;;;;;;15.03;42.50;100631.82;1815810;77;21036;-66